Time;durP1;ratioP1;P1;durP2;ratioP2;P2;SDS_P1;SDS_P2;PMS_P1;PMS_P2;Temp;Humidity;BMP_temperature;BMP_pressure;BME280_temperature;BME280_humidity;BME280_pressure;Samples;Min_cycle;Max_cycle;Signal;HPM_P1;HPM_P2
2022/11/17 00:00:18;;;;;;;41.47;36.97;;;13.00;99.90;;;;;;5051545;28;20033;-81
2022/11/17 00:02:45;;;;;;;47.72;32.97;;;13.00;99.90;;;;;;5017744;28;20033;-81
2022/11/17 00:05:11;;;;;;;43.15;34.35;;;13.00;99.90;;;;;;5051283;28;20028;-81
2022/11/17 00:07:37;;;;;;;52.08;35.38;;;13.00;99.90;;;;;;5050902;28;20056;-81
2022/11/17 00:10:04;;;;;;;52.35;37.50;;;13.00;99.90;;;;;;5032889;28;20052;-81
2022/11/17 00:15:15;;;;;;;45.25;38.45;;;13.10;99.90;;;;;;5052937;28;20040;-81
2022/11/17 00:17:41;;;;;;;40.20;35.75;;;13.10;99.90;;;;;;5050493;28;20032;-80
2022/11/17 00:22:54;;;;;;;34.35;31.05;;;13.00;99.90;;;;;;5021103;28;20056;-81
2022/11/17 00:25:20;;;;;;;33.25;30.33;;;12.90;99.90;;;;;;5043178;28;20028;-81
2022/11/17 00:27:46;;;;;;;34.00;31.15;;;12.80;99.90;;;;;;5033511;28;20037;-81
2022/11/17 00:34:03;;;;;;;36.20;33.85;;;12.60;99.90;;;;;;5047479;28;20064;-81
2022/11/17 00:35:52;;;;;;;35.42;31.98;;;12.50;99.90;;;;;;5055168;28;20032;-81
2022/11/17 00:38:18;;;;;;;51.83;47.45;;;12.50;99.90;;;;;;5032478;28;20037;-81
2022/11/17 00:40:45;;;;;;;43.58;39.35;;;12.50;99.90;;;;;;5031777;28;20037;-81
2022/11/17 00:43:11;;;;;;;47.58;43.25;;;12.50;99.90;;;;;;5032556;28;20474;-81
2022/11/17 00:45:37;;;;;;;41.22;36.80;;;12.60;99.90;;;;;;5050870;28;20029;-81
2022/11/17 00:48:03;;;;;;;41.75;38.25;;;12.60;99.90;;;;;;5039663;28;20474;-81
2022/11/17 00:50:29;;;;;;;44.45;40.08;;;12.60;99.90;;;;;;5037255;28;20033;-81
2022/11/17 00:52:55;;;;;;;35.97;32.40;;;12.70;99.90;;;;;;5036957;28;20021;-81
2022/11/17 00:55:21;;;;;;;41.85;35.58;;;12.70;99.90;;;;;;5052889;28;20033;-81
2022/11/17 00:57:47;;;;;;;35.53;31.88;;;12.70;99.90;;;;;;5035493;28;20029;-81
2022/11/17 01:00:14;;;;;;;44.75;31.40;;;12.70;99.90;;;;;;5054553;28;20021;-81
2022/11/17 01:02:41;;;;;;;36.38;30.05;;;12.70;99.90;;;;;;5053940;28;20032;-81
2022/11/17 01:05:07;;;;;;;34.90;31.00;;;12.60;99.90;;;;;;5054671;28;20033;-81
2022/11/17 01:07:33;;;;;;;33.47;28.95;;;12.60;99.90;;;;;;5054764;28;20025;-81
2022/11/17 01:09:59;;;;;;;33.13;29.77;;;12.60;99.90;;;;;;5052444;28;20393;-81
2022/11/17 01:12:25;;;;;;;34.22;29.77;;;12.60;99.90;;;;;;5052649;28;20029;-81
2022/11/17 01:14:51;;;;;;;32.22;28.48;;;12.50;99.90;;;;;;5054878;28;20389;-81
2022/11/17 01:17:17;;;;;;;32.58;28.92;;;12.50;99.90;;;;;;5052423;28;20025;-81
2022/11/17 01:19:43;;;;;;;38.63;30.77;;;12.50;99.90;;;;;;5053744;28;20028;-80
2022/11/17 01:22:09;;;;;;;39.97;28.10;;;12.50;99.90;;;;;;5053665;28;20021;-81
2022/11/17 01:24:35;;;;;;;34.67;30.88;;;12.50;99.90;;;;;;5036189;28;20033;-81
2022/11/17 01:27:02;;;;;;;40.00;30.17;;;12.50;99.90;;;;;;5033210;28;20087;-81
2022/11/17 01:29:28;;;;;;;40.85;30.98;;;12.50;99.90;;;;;;5053096;28;20036;-81
2022/11/17 01:31:54;;;;;;;36.85;31.13;;;12.50;99.90;;;;;;5052818;28;20047;-81
2022/11/17 01:34:20;;;;;;;36.45;28.85;;;12.50;99.90;;;;;;5052281;28;20390;-81
2022/11/17 01:39:31;;;;;;;43.10;29.80;;;12.60;99.90;;;;;;5054669;28;20044;-81
2022/11/17 01:41:57;;;;;;;45.17;29.83;;;12.50;99.90;;;;;;5053136;28;20368;-81
2022/11/17 01:44:51;;;;;;;47.67;33.45;;;12.60;99.90;;;;;;5054065;28;20048;-81
2022/11/17 01:47:36;;;;;;;46.85;34.35;;;12.60;99.90;;;;;;5052662;28;20040;-81
2022/11/17 01:50:13;;;;;;;46.60;37.05;;;12.60;99.90;;;;;;5052514;28;20048;-81
2022/11/17 01:52:40;;;;;;;49.03;42.85;;;12.60;99.90;;;;;;5053333;28;20051;-81
2022/11/17 01:55:07;;;;;;;48.40;42.35;;;12.60;99.90;;;;;;5019275;28;20048;-81
2022/11/17 01:57:36;;;;;;;34.42;29.42;;;12.70;99.90;;;;;;5035896;28;20029;-80
2022/11/17 02:00:07;;;;;;;44.13;31.10;;;12.70;99.90;;;;;;5052842;28;20033;-82
2022/11/17 02:02:34;;;;;;;31.67;24.80;;;12.70;99.90;;;;;;5053071;28;20032;-80
2022/11/17 02:05:12;;;;;;;31.73;25.42;;;12.80;99.90;;;;;;5018408;28;20381;-81
2022/11/17 02:07:38;;;;;;;35.33;25.90;;;12.80;99.90;;;;;;5034963;28;20036;-81
2022/11/17 02:10:05;;;;;;;43.13;27.40;;;12.80;99.90;;;;;;5036007;28;20044;-81
2022/11/17 02:12:31;;;;;;;27.58;24.73;;;12.80;99.90;;;;;;5053817;28;20036;-81
2022/11/17 02:14:57;;;;;;;31.83;28.15;;;12.80;99.90;;;;;;5051304;28;20045;-81
2022/11/17 02:17:35;;;;;;;29.52;26.35;;;12.80;99.90;;;;;;5034793;28;20033;-81
2022/11/17 02:20:10;;;;;;;29.25;26.20;;;12.80;99.90;;;;;;5018117;28;20367;-81
2022/11/17 02:22:55;;;;;;;29.95;26.80;;;12.70;99.90;;;;;;5039130;28;20026;-81
2022/11/17 02:25:26;;;;;;;32.05;29.23;;;12.80;99.90;;;;;;5036553;28;20036;-81
2022/11/17 02:28:01;;;;;;;28.38;25.52;;;12.70;99.90;;;;;;5035296;28;20032;-81
2022/11/17 02:30:33;;;;;;;30.55;27.13;;;12.70;99.90;;;;;;5051741;28;20052;-81
2022/11/17 02:33:06;;;;;;;36.25;32.60;;;12.70;99.90;;;;;;5052563;28;20021;-81
2022/11/17 02:35:41;;;;;;;38.05;34.33;;;12.70;99.90;;;;;;5033602;28;20099;-81
2022/11/17 02:38:18;;;;;;;41.25;37.00;;;12.70;99.90;;;;;;5052314;28;20037;-81
2022/11/17 02:40:51;;;;;;;50.63;45.40;;;12.70;99.90;;;;;;5035065;28;20048;-81
2022/11/17 02:46:08;;;;;;;48.30;43.55;;;12.60;99.90;;;;;;5036812;28;20036;-81
2022/11/17 02:48:39;;;;;;;46.10;41.70;;;12.60;99.90;;;;;;5024613;28;20033;-81
2022/11/17 02:51:07;;;;;;;38.67;34.72;;;12.60;99.90;;;;;;5034063;28;20041;-81
2022/11/17 02:53:33;;;;;;;41.78;37.33;;;12.70;99.90;;;;;;5034182;28;20039;-81
2022/11/17 02:56:00;;;;;;;37.88;34.30;;;12.60;99.90;;;;;;5032062;28;20025;-81
2022/11/17 02:58:27;;;;;;;42.40;35.80;;;12.70;99.90;;;;;;5052617;28;20017;-81
2022/11/17 03:01:09;;;;;;;41.47;35.53;;;12.70;99.90;;;;;;5051054;28;20120;-81
2022/11/17 03:03:48;;;;;;;31.15;27.98;;;12.70;99.90;;;;;;5011333;28;20048;-81
2022/11/17 03:06:21;;;;;;;36.45;31.50;;;12.70;99.90;;;;;;5027930;28;20044;-81
2022/11/17 03:09:00;;;;;;;39.67;34.10;;;12.70;99.90;;;;;;5011714;28;20032;-81
2022/11/17 03:11:31;;;;;;;32.30;29.08;;;12.70;99.90;;;;;;5026904;28;20486;-81
2022/11/17 03:14:01;;;;;;;35.65;31.52;;;12.70;99.90;;;;;;5004316;28;20021;-81
2022/11/17 03:16:36;;;;;;;35.92;30.58;;;12.70;99.90;;;;;;5029106;28;20038;-81
2022/11/17 03:19:13;;;;;;;39.40;32.75;;;12.70;99.90;;;;;;5036365;28;20021;-81
2022/11/17 03:21:59;;;;;;;36.80;33.47;;;12.70;99.90;;;;;;5033419;28;20032;-81
2022/11/17 03:24:40;;;;;;;35.30;29.55;;;12.70;99.90;;;;;;5048918;28;20048;-81
2022/11/17 03:27:28;;;;;;;36.30;32.20;;;12.70;99.90;;;;;;5049924;28;20032;-81
2022/11/17 03:29:58;;;;;;;34.67;31.08;;;12.70;99.90;;;;;;5013913;28;20074;-81
2022/11/17 03:32:24;;;;;;;30.33;27.35;;;12.70;99.90;;;;;;5016204;28;20029;-81
2022/11/17 03:34:54;;;;;;;27.45;24.02;;;12.80;99.90;;;;;;5016241;28;20029;-81
2022/11/17 03:37:20;;;;;;;32.17;23.88;;;12.70;99.90;;;;;;5017559;28;20469;-81
2022/11/17 03:39:49;;;;;;;25.77;23.05;;;12.70;99.90;;;;;;5032045;28;20123;-81
2022/11/17 03:42:29;;;;;;;24.70;22.17;;;12.70;99.90;;;;;;5017830;28;20056;-81
2022/11/17 03:45:03;;;;;;;39.63;36.13;;;12.70;99.90;;;;;;5002934;28;20442;-81
2022/11/17 03:47:30;;;;;;;26.73;20.10;;;12.70;99.90;;;;;;5014844;28;20453;-81
2022/11/17 03:49:59;;;;;;;20.65;18.83;;;12.70;99.90;;;;;;5016873;28;20477;-81
2022/11/17 03:52:28;;;;;;;22.17;20.15;;;12.60;99.90;;;;;;5034571;28;20366;-81
2022/11/17 03:54:54;;;;;;;20.10;18.17;;;12.60;99.90;;;;;;5033135;28;20056;-81
2022/11/17 03:57:32;;;;;;;20.55;18.55;;;12.60;99.90;;;;;;5017886;28;20029;-81
2022/11/17 04:00:12;;;;;;;21.45;19.00;;;12.60;99.90;;;;;;5051731;28;20044;-81
2022/11/17 04:02:42;;;;;;;22.20;20.33;;;12.60;99.90;;;;;;5001836;28;20036;-81
2022/11/17 04:05:08;;;;;;;26.88;24.52;;;12.60;99.90;;;;;;5051460;28;20060;-81
2022/11/17 04:07:53;;;;;;;28.42;25.75;;;12.60;99.90;;;;;;5032944;28;20029;-83
2022/11/17 04:10:20;;;;;;;29.65;25.42;;;12.60;99.90;;;;;;5028457;28;20041;-82
2022/11/17 04:18:17;;;;;;;40.63;29.90;;;12.60;99.90;;;;;;5051929;28;20032;-82
2022/11/17 04:20:43;;;;;;;34.03;29.70;;;12.60;99.90;;;;;;5033865;28;20029;-83
2022/11/17 04:23:12;;;;;;;49.60;29.50;;;12.60;99.90;;;;;;5050702;28;20040;-82
2022/11/17 04:28:36;;;;;;;38.35;27.13;;;12.60;99.90;;;;;;5040390;28;20394;-82
2022/11/17 04:31:06;;;;;;;39.67;28.50;;;12.60;99.90;;;;;;5054443;28;20064;-82
2022/11/17 04:33:33;;;;;;;33.35;28.42;;;12.50;99.90;;;;;;5036422;28;20063;-84
2022/11/17 04:35:59;;;;;;;33.22;30.08;;;12.50;99.90;;;;;;5037100;28;20045;-83
2022/11/17 04:38:25;;;;;;;31.65;27.90;;;12.50;99.90;;;;;;5052684;28;20488;-82
2022/11/17 04:43:38;;;;;;;28.52;26.08;;;12.50;99.90;;;;;;5035845;28;20028;-81
2022/11/17 04:46:04;;;;;;;36.70;26.38;;;12.50;99.90;;;;;;5052973;28;20045;-82
2022/11/17 04:48:30;;;;;;;35.45;27.02;;;12.50;99.90;;;;;;5022736;28;20044;-82
2022/11/17 04:50:56;;;;;;;30.27;27.00;;;12.50;99.90;;;;;;5031714;28;20045;-81
2022/11/17 04:53:23;;;;;;;30.67;25.90;;;12.50;99.90;;;;;;5054806;28;20033;-81
2022/11/17 04:55:49;;;;;;;32.47;28.90;;;12.50;99.90;;;;;;5054854;28;20033;-82
2022/11/17 04:58:15;;;;;;;31.05;26.17;;;12.50;99.90;;;;;;5048506;28;20029;-82
2022/11/17 05:00:41;;;;;;;31.67;28.20;;;12.50;99.90;;;;;;5010436;28;20036;-82
2022/11/17 05:03:08;;;;;;;36.13;27.67;;;12.40;99.90;;;;;;5035917;28;20040;-82
2022/11/17 05:05:34;;;;;;;33.85;27.70;;;12.50;99.90;;;;;;5052932;28;20040;-85
2022/11/17 05:08:00;;;;;;;30.30;26.92;;;12.50;99.90;;;;;;5052500;28;20028;-83
2022/11/17 05:13:21;;;;;;;29.80;26.98;;;12.50;99.90;;;;;;5011938;28;20487;-84
2022/11/17 05:18:32;;;;;;;42.22;26.52;;;12.50;99.90;;;;;;4994810;28;20077;-84
2022/11/17 05:21:05;;;;;;;40.42;28.38;;;12.50;99.90;;;;;;5011904;28;20041;-83
2022/11/17 05:26:15;;;;;;;35.15;29.90;;;12.50;99.90;;;;;;5018991;28;20157;-84
2022/11/17 05:28:42;;;;;;;37.05;29.60;;;12.50;99.90;;;;;;5011155;28;20483;-84
2022/11/17 05:31:08;;;;;;;38.17;30.08;;;12.50;99.90;;;;;;4994807;28;20057;-84
2022/11/17 05:33:34;;;;;;;34.03;26.88;;;12.60;99.90;;;;;;4986297;28;20104;-84
2022/11/17 05:36:00;;;;;;;39.67;28.30;;;12.60;99.90;;;;;;4991460;28;20086;-84
2022/11/17 05:38:26;;;;;;;49.92;32.40;;;12.60;99.90;;;;;;4993049;28;20038;-85
2022/11/17 05:40:53;;;;;;;47.97;34.92;;;12.60;99.90;;;;;;4999849;28;20049;-85
2022/11/17 05:43:19;;;;;;;56.50;41.20;;;12.60;99.90;;;;;;4979575;28;20391;-85
2022/11/17 05:45:45;;;;;;;49.45;38.90;;;12.50;99.90;;;;;;5011747;28;20037;-85
2022/11/17 05:48:11;;;;;;;47.50;42.47;;;12.50;99.90;;;;;;4989730;28;20037;-84
2022/11/17 05:50:37;;;;;;;52.40;42.08;;;12.40;99.90;;;;;;5029339;28;20057;-84
2022/11/17 05:53:03;;;;;;;56.55;46.38;;;12.40;99.90;;;;;;5053783;28;20029;-85
2022/11/17 05:55:29;;;;;;;56.70;50.58;;;12.40;99.90;;;;;;5053256;28;20033;-85
2022/11/17 05:57:57;;;;;;;60.70;53.90;;;12.40;99.90;;;;;;5053234;28;20029;-84
2022/11/17 06:00:23;;;;;;;59.17;52.78;;;12.40;99.90;;;;;;5053354;28;20032;-84
2022/11/17 06:02:51;;;;;;;62.75;56.17;;;12.40;99.90;;;;;;5035990;28;20020;-84
2022/11/17 06:05:17;;;;;;;67.95;60.00;;;12.50;99.90;;;;;;5052987;28;20028;-84
2022/11/17 06:07:44;;;;;;;69.00;61.95;;;12.40;99.90;;;;;;5035841;28;20033;-84
2022/11/17 06:10:10;;;;;;;76.57;69.38;;;12.40;99.90;;;;;;5017613;28;20036;-84
2022/11/17 06:12:36;;;;;;;77.55;70.18;;;12.50;99.90;;;;;;5052567;28;20032;-83
2022/11/17 06:15:02;;;;;;;72.63;66.15;;;12.50;99.90;;;;;;5035402;28;20037;-86
2022/11/17 06:17:33;;;;;;;74.78;67.43;;;12.50;99.90;;;;;;5034349;28;20076;-84
2022/11/17 06:20:06;;;;;;;80.93;73.22;;;12.50;99.90;;;;;;5034211;28;20493;-84
2022/11/17 06:22:32;;;;;;;68.50;56.03;;;12.50;99.90;;;;;;5035710;28;20052;-84
2022/11/17 06:24:58;;;;;;;62.63;55.60;;;12.50;99.90;;;;;;5053578;28;20025;-84
2022/11/17 06:27:24;;;;;;;43.90;39.58;;;12.50;99.90;;;;;;5034377;28;20466;-84
2022/11/17 06:29:50;;;;;;;42.33;32.65;;;12.50;99.90;;;;;;5019251;28;20029;-84
2022/11/17 06:32:16;;;;;;;42.13;31.27;;;12.50;99.90;;;;;;5035043;28;20037;-84
2022/11/17 06:34:43;;;;;;;41.80;31.23;;;12.40;99.90;;;;;;5033648;28;20032;-86
2022/11/17 06:37:10;;;;;;;43.90;32.05;;;12.40;99.90;;;;;;5051528;28;20043;-84
2022/11/17 06:39:36;;;;;;;43.42;31.90;;;12.50;99.90;;;;;;5035377;28;20025;-84
2022/11/17 06:42:02;;;;;;;46.28;30.65;;;12.50;99.90;;;;;;5052772;28;20490;-83
2022/11/17 06:44:28;;;;;;;46.97;31.55;;;12.50;99.90;;;;;;5047110;28;20466;-84
2022/11/17 06:46:54;;;;;;;66.13;33.70;;;12.30;99.90;;;;;;5050646;28;20044;-84
2022/11/17 06:49:20;;;;;;;44.53;29.85;;;12.30;99.90;;;;;;5050721;28;20393;-83
2022/11/17 06:51:46;;;;;;;41.95;30.00;;;12.40;99.90;;;;;;5051194;28;20406;-83
2022/11/17 06:54:13;;;;;;;39.40;31.85;;;12.30;99.90;;;;;;5021769;28;20647;-86
2022/11/17 06:56:39;;;;;;;51.67;33.97;;;12.30;99.90;;;;;;5049461;28;20045;-84
2022/11/17 06:59:05;;;;;;;44.65;31.98;;;12.30;99.90;;;;;;5034654;28;20079;-83
2022/11/17 07:01:31;;;;;;;45.10;30.60;;;12.30;99.90;;;;;;5050985;28;20025;-84
2022/11/17 07:03:57;;;;;;;53.33;33.53;;;12.30;99.90;;;;;;5052920;28;20056;-85
2022/11/17 07:06:24;;;;;;;45.65;31.83;;;12.30;99.90;;;;;;5051937;28;20029;-84
2022/11/17 07:08:50;;;;;;;39.88;32.30;;;12.30;99.90;;;;;;5051891;28;20040;-88
2022/11/17 07:11:16;;;;;;;75.78;66.90;;;12.30;99.90;;;;;;5034198;28;20387;-88
2022/11/17 07:13:42;;;;;;;56.28;48.63;;;12.40;99.90;;;;;;5017895;28;20029;-86
2022/11/17 07:16:10;;;;;;;48.13;37.15;;;12.50;99.90;;;;;;5017253;28;20037;-87
2022/11/17 07:18:37;;;;;;;47.10;40.25;;;12.50;99.90;;;;;;5002050;28;20051;-92
2022/11/17 07:21:04;;;;;;;55.05;48.72;;;12.60;99.90;;;;;;5016991;28;20033;-93
2022/11/17 07:23:30;;;;;;;46.35;39.63;;;12.60;99.90;;;;;;5015493;28;20041;-91
2022/11/17 07:25:57;;;;;;;54.75;49.92;;;12.60;99.90;;;;;;5018197;28;20032;-91
2022/11/17 07:28:23;;;;;;;44.13;33.65;;;12.60;99.90;;;;;;5035042;28;20041;-91
2022/11/17 07:30:49;;;;;;;43.92;35.47;;;12.70;99.90;;;;;;5000767;28;20041;-89
2022/11/17 07:33:15;;;;;;;35.97;30.05;;;12.80;99.90;;;;;;5001083;28;20386;-89
2022/11/17 07:35:50;;;;;;;55.15;49.72;;;12.80;99.90;;;;;;4998823;28;20032;-91
2022/11/17 07:38:16;;;;;;;54.58;49.70;;;12.90;99.90;;;;;;5011918;28;20413;-88
2022/11/17 07:40:42;;;;;;;43.15;38.97;;;13.00;99.90;;;;;;5014617;28;20050;-89
2022/11/17 07:43:08;;;;;;;42.65;37.80;;;13.10;99.90;;;;;;5018187;28;20367;-92
2022/11/17 07:45:35;;;;;;;36.10;32.65;;;13.00;99.90;;;;;;5032361;28;20037;-88
2022/11/17 07:48:02;;;;;;;45.05;41.03;;;13.00;99.90;;;;;;5017185;28;20033;-91
2022/11/17 07:50:29;;;;;;;59.83;54.92;;;13.10;99.90;;;;;;5017631;28;20040;-90
2022/11/17 07:52:55;;;;;;;33.53;30.27;;;13.20;99.90;;;;;;5031998;28;20054;-88
2022/11/17 07:55:22;;;;;;;35.33;31.35;;;13.30;99.90;;;;;;5016328;28;20056;-90
2022/11/17 07:57:58;;;;;;;34.40;31.23;;;13.30;99.90;;;;;;5015518;28;20422;-89
2022/11/17 08:00:25;;;;;;;34.13;30.85;;;13.40;99.90;;;;;;5003758;28;20387;-92
2022/11/17 08:02:51;;;;;;;56.55;51.13;;;13.30;99.90;;;;;;5040208;28;20029;-89
2022/11/17 08:05:18;;;;;;;33.28;29.52;;;13.40;99.90;;;;;;5039789;28;20043;-91
2022/11/17 08:07:44;;;;;;;66.85;62.10;;;13.60;99.90;;;;;;5021929;28;20436;-91
2022/11/17 08:10:11;;;;;;;38.95;35.35;;;13.70;99.90;;;;;;5021279;28;20040;-90
2022/11/17 08:12:38;;;;;;;54.03;49.72;;;13.70;99.90;;;;;;5020558;28;20052;-88
2022/11/17 08:15:05;;;;;;;45.28;41.38;;;13.70;99.90;;;;;;5049841;28;20041;-88
2022/11/17 08:17:31;;;;;;;53.80;49.38;;;13.80;99.90;;;;;;5037276;28;20044;-91
2022/11/17 08:19:57;;;;;;;61.65;56.53;;;13.80;99.90;;;;;;5018996;28;20040;-90
2022/11/17 08:22:23;;;;;;;38.72;35.00;;;13.80;99.90;;;;;;5004256;28;20041;-91
2022/11/17 08:24:49;;;;;;;50.17;45.58;;;13.70;99.90;;;;;;5020281;28;20477;-91
2022/11/17 08:27:15;;;;;;;41.55;37.72;;;13.60;99.90;;;;;;5013977;28;20034;-90
2022/11/17 08:29:41;;;;;;;50.53;46.70;;;13.60;99.90;;;;;;5004312;28;20041;-91
2022/11/17 08:32:07;;;;;;;44.15;35.72;;;13.60;99.90;;;;;;5005489;28;20048;-91
2022/11/17 08:34:33;;;;;;;38.55;34.40;;;13.50;99.90;;;;;;5024642;28;20409;-93
2022/11/17 08:37:00;;;;;;;36.03;32.28;;;13.50;99.90;;;;;;5006066;28;20036;-94
2022/11/17 08:39:26;;;;;;;39.03;35.42;;;13.50;99.90;;;;;;5009491;28;20036;-92
2022/11/17 08:41:52;;;;;;;33.45;30.13;;;13.40;99.90;;;;;;5008269;28;20051;-92
2022/11/17 08:44:18;;;;;;;47.20;43.15;;;13.40;99.90;;;;;;5028951;28;20041;-93
2022/11/17 08:46:44;;;;;;;47.03;42.75;;;13.30;99.90;;;;;;5011046;28;20041;-92
2022/11/17 08:49:10;;;;;;;49.67;45.58;;;13.40;99.90;;;;;;5004847;28;20044;-91
2022/11/17 08:51:36;;;;;;;35.88;32.22;;;13.30;99.90;;;;;;5002062;28;20049;-90
2022/11/17 08:54:02;;;;;;;48.22;44.20;;;13.30;99.90;;;;;;5002422;28;20037;-90
2022/11/17 08:56:28;;;;;;;49.35;44.90;;;13.30;99.90;;;;;;5033594;28;20045;-90
2022/11/17 08:58:54;;;;;;;44.03;40.40;;;13.40;99.90;;;;;;5023387;28;20382;-87
2022/11/17 09:01:21;;;;;;;48.25;44.38;;;13.40;99.90;;;;;;5037700;28;20029;-93
2022/11/17 09:03:47;;;;;;;41.20;37.67;;;13.50;99.90;;;;;;5054682;28;20036;-90
2022/11/17 09:06:14;;;;;;;41.97;38.45;;;13.40;99.90;;;;;;5055735;28;20051;-92
2022/11/17 09:08:40;;;;;;;41.58;38.17;;;13.50;99.90;;;;;;5038075;28;20033;-89
2022/11/17 09:11:07;;;;;;;39.63;35.97;;;13.50;99.90;;;;;;5035541;28;20041;-91
2022/11/17 09:13:33;;;;;;;45.85;41.97;;;13.50;99.90;;;;;;5036833;28;20029;-92
2022/11/17 09:16:03;;;;;;;37.40;34.00;;;13.50;99.90;;;;;;5035159;28;20037;-85
2022/11/17 09:18:29;;;;;;;37.90;33.83;;;13.50;99.90;;;;;;5019196;28;20362;-86
2022/11/17 09:21:04;;;;;;;34.17;30.58;;;13.50;99.90;;;;;;5035400;28;20383;-88
2022/11/17 09:23:30;;;;;;;35.10;32.40;;;13.60;99.90;;;;;;5052072;28;20533;-87
2022/11/17 09:25:57;;;;;;;35.17;32.35;;;13.50;99.90;;;;;;5019411;28;20029;-87
2022/11/17 09:28:27;;;;;;;35.22;32.30;;;13.60;99.90;;;;;;5036681;28;20246;-84
2022/11/17 09:30:53;;;;;;;40.92;36.88;;;13.60;99.90;;;;;;5053429;28;20055;-87
2022/11/17 09:33:19;;;;;;;34.10;31.00;;;13.70;99.90;;;;;;5036665;28;20119;-88
2022/11/17 09:35:45;;;;;;;38.72;35.53;;;13.70;99.90;;;;;;5019619;28;20032;-88
2022/11/17 09:38:11;;;;;;;38.55;34.72;;;13.70;99.90;;;;;;5034693;28;20154;-92
2022/11/17 09:40:38;;;;;;;39.08;35.63;;;13.70;99.90;;;;;;5032227;28;20033;-92
2022/11/17 09:43:14;;;;;;;33.42;30.13;;;13.80;99.90;;;;;;5003558;28;20056;-88
2022/11/17 09:45:40;;;;;;;49.10;44.38;;;13.70;99.90;;;;;;5019107;28;20101;-90
2022/11/17 09:48:12;;;;;;;37.85;32.47;;;13.80;99.90;;;;;;5019210;28;20041;-88
2022/11/17 09:50:39;;;;;;;40.13;36.70;;;13.80;99.90;;;;;;5003382;28;20049;-88
2022/11/17 09:53:40;;;;;;;50.05;45.92;;;13.80;99.90;;;;;;5018763;28;20021;-87
2022/11/17 09:56:07;;;;;;;41.83;36.03;;;13.80;99.90;;;;;;5052578;28;20048;-87
2022/11/17 09:58:45;;;;;;;35.55;31.98;;;13.90;99.90;;;;;;5019443;28;20044;-86
2022/11/17 10:01:13;;;;;;;38.60;35.35;;;13.90;99.90;;;;;;5012161;28;20386;-88
2022/11/17 10:03:40;;;;;;;34.10;30.73;;;13.90;99.90;;;;;;5014177;28;20029;-87
2022/11/17 10:06:10;;;;;;;31.55;28.17;;;14.00;99.90;;;;;;5018951;28;20029;-88
2022/11/17 10:08:44;;;;;;;33.08;29.58;;;14.00;99.90;;;;;;5000367;28;20034;-87
2022/11/17 10:11:34;;;;;;;35.88;32.17;;;14.10;99.90;;;;;;5014918;28;20037;-85
2022/11/17 10:14:20;;;;;;;36.25;29.15;;;14.10;99.90;;;;;;5015794;28;20513;-84
2022/11/17 10:16:56;;;;;;;35.85;32.13;;;14.20;99.90;;;;;;5034022;28;20028;-85
2022/11/17 10:19:26;;;;;;;32.78;29.67;;;14.30;99.90;;;;;;5020254;28;20405;-84
2022/11/17 10:21:54;;;;;;;36.75;33.25;;;14.30;99.90;;;;;;5029402;28;20044;-88
2022/11/17 10:24:46;;;;;;;36.40;32.97;;;14.40;99.90;;;;;;5018112;28;20033;-87
2022/11/17 10:27:32;;;;;;;38.58;34.63;;;14.40;99.90;;;;;;5020263;28;20037;-88
2022/11/17 10:30:00;;;;;;;33.63;28.65;;;14.50;99.90;;;;;;5034593;28;20025;-87
2022/11/17 10:32:37;;;;;;;46.00;41.35;;;14.50;99.90;;;;;;5016995;28;20053;-88
2022/11/17 10:35:29;;;;;;;35.85;32.17;;;14.60;99.90;;;;;;5034307;28;20029;-87
2022/11/17 10:38:19;;;;;;;37.28;33.38;;;14.70;99.90;;;;;;5034179;28;20032;-87
2022/11/17 10:40:48;;;;;;;37.35;33.88;;;14.80;99.90;;;;;;5011452;28;20499;-89
2022/11/17 10:43:15;;;;;;;36.00;31.27;;;14.90;99.90;;;;;;5007640;28;20032;-87
2022/11/17 10:45:45;;;;;;;39.05;35.25;;;14.90;99.90;;;;;;5037816;28;20040;-88
2022/11/17 10:48:18;;;;;;;37.30;34.17;;;15.00;99.90;;;;;;5034771;28;20029;-87
2022/11/17 10:50:54;;;;;;;38.20;32.35;;;14.90;99.90;;;;;;5034459;28;20041;-89
2022/11/17 10:53:32;;;;;;;38.55;34.85;;;15.00;99.90;;;;;;5030694;28;20059;-87
2022/11/17 10:56:06;;;;;;;41.78;37.78;;;14.90;99.90;;;;;;5050035;28;20029;-89
2022/11/17 10:58:49;;;;;;;41.78;38.47;;;14.90;99.90;;;;;;5036894;28;20474;-86
2022/11/17 11:01:16;;;;;;;43.72;39.58;;;14.90;99.90;;;;;;5018181;28;20036;-87
2022/11/17 11:03:47;;;;;;;39.75;36.25;;;14.90;99.90;;;;;;5016052;28;20041;-85
2022/11/17 11:06:25;;;;;;;41.63;37.30;;;14.90;99.90;;;;;;5032996;28;20044;-86
2022/11/17 11:09:03;;;;;;;40.05;35.00;;;14.90;99.90;;;;;;5052089;28;20033;-88
2022/11/17 11:11:53;;;;;;;42.38;38.50;;;14.80;99.90;;;;;;5052464;28;20040;-87
2022/11/17 11:14:30;;;;;;;36.78;32.97;;;14.90;99.90;;;;;;5018224;28;20029;-89
2022/11/17 11:16:56;;;;;;;45.70;41.83;;;14.90;99.90;;;;;;5016037;28;20556;-87
2022/11/17 11:19:22;;;;;;;44.35;40.55;;;15.00;99.90;;;;;;5034401;28;20031;-86
2022/11/17 11:22:26;;;;;;;41.85;38.10;;;15.10;99.90;;;;;;5051602;28;20036;-87
2022/11/17 11:25:12;;;;;;;41.53;37.55;;;15.10;99.90;;;;;;5029164;28;20390;-86
2022/11/17 11:28:02;;;;;;;43.17;38.88;;;15.20;99.90;;;;;;5021738;28;20048;-86
2022/11/17 11:30:28;;;;;;;38.83;34.88;;;15.30;99.90;;;;;;5050667;28;20029;-84
2022/11/17 11:32:57;;;;;;;39.92;36.28;;;15.30;99.90;;;;;;5033666;28;20060;-86
2022/11/17 11:35:42;;;;;;;39.58;35.95;;;15.20;99.90;;;;;;5047369;28;20112;-85
2022/11/17 11:38:31;;;;;;;37.15;33.50;;;15.20;99.90;;;;;;5027444;28;20036;-86
2022/11/17 11:41:06;;;;;;;41.75;38.22;;;15.30;99.90;;;;;;5030332;28;20430;-85
2022/11/17 11:44:09;;;;;;;37.53;33.97;;;15.30;99.90;;;;;;5033203;28;20497;-85
2022/11/17 11:46:50;;;;;;;32.17;29.05;;;15.40;99.90;;;;;;5029630;28;20037;-86
2022/11/17 11:49:22;;;;;;;34.58;31.33;;;15.50;99.90;;;;;;5020921;28;20040;-86
2022/11/17 11:51:48;;;;;;;32.67;26.38;;;15.50;99.90;;;;;;5027436;28;20045;-86
2022/11/17 11:54:28;;;;;;;28.60;25.52;;;15.50;99.90;;;;;;5027950;28;20037;-86
2022/11/17 11:56:54;;;;;;;32.60;28.98;;;15.50;99.90;;;;;;5011376;28;20037;-86
2022/11/17 11:59:40;;;;;;;29.58;26.38;;;15.50;99.90;;;;;;5014805;28;20029;-83
2022/11/17 12:02:10;;;;;;;31.10;26.23;;;15.50;99.90;;;;;;5014763;28;20044;-85
2022/11/17 12:04:42;;;;;;;32.67;29.25;;;15.30;99.90;;;;;;5029419;28;20048;-83
2022/11/17 12:07:16;;;;;;;30.08;26.67;;;15.30;99.90;;;;;;5031249;28;20029;-83
2022/11/17 12:09:49;;;;;;;34.00;26.85;;;15.20;99.90;;;;;;5009765;28;20435;-83
2022/11/17 12:12:28;;;;;;;30.85;27.63;;;15.10;99.90;;;;;;5011506;28;20050;-83
2022/11/17 12:15:18;;;;;;;28.92;25.00;;;15.20;99.90;;;;;;5017679;28;20017;-83
2022/11/17 12:17:58;;;;;;;29.88;26.77;;;15.30;99.90;;;;;;5030269;28;20049;-83
2022/11/17 12:20:50;;;;;;;24.50;21.70;;;15.50;99.90;;;;;;5029496;28;20038;-82
2022/11/17 12:23:34;;;;;;;26.58;23.70;;;15.60;99.90;;;;;;4972499;28;20034;-82
2022/11/17 12:26:00;;;;;;;24.88;22.25;;;15.80;99.90;;;;;;4989141;28;20038;-83
2022/11/17 12:28:34;;;;;;;22.42;20.48;;;15.70;99.90;;;;;;4989667;28;20475;-82
2022/11/17 12:31:10;;;;;;;23.25;20.88;;;15.60;99.90;;;;;;4969923;28;20475;-83
2022/11/17 12:33:51;;;;;;;24.92;22.67;;;15.50;99.90;;;;;;4988740;28;20054;-82
2022/11/17 12:36:23;;;;;;;22.40;20.13;;;15.40;99.90;;;;;;4989057;28;20034;-82
2022/11/17 12:38:50;;;;;;;20.38;18.30;;;15.30;99.90;;;;;;4986975;28;20039;-82
2022/11/17 12:41:49;;;;;;;22.15;20.10;;;15.20;99.90;;;;;;4987825;28;20041;-83
2022/11/17 12:44:34;;;;;;;23.85;20.00;;;15.20;99.90;;;;;;4989053;28;20383;-82
2022/11/17 12:47:13;;;;;;;28.38;23.80;;;15.10;99.90;;;;;;4973603;28;20499;-82
2022/11/17 12:50:04;;;;;;;23.75;19.58;;;15.10;99.90;;;;;;4992930;28;20033;-82
2022/11/17 12:53:05;;;;;;;30.42;23.38;;;15.10;99.90;;;;;;4992823;28;20047;-83
2022/11/17 12:55:31;;;;;;;;;;;15.10;99.90;;;;;;4992758;28;20145;-83
2022/11/17 12:58:41;;;;;;;28.88;20.13;;;15.10;99.90;;;;;;4993039;28;20493;-83
2022/11/17 13:01:23;;;;;;;20.92;17.25;;;15.10;99.90;;;;;;4964157;28;20043;-83
2022/11/17 13:04:12;;;;;;;19.88;17.88;;;15.10;99.90;;;;;;4941573;29;20042;-82
2022/11/17 13:07:01;;;;;;;24.27;17.55;;;15.10;99.90;;;;;;4939824;29;20039;-83
2022/11/17 13:09:29;;;;;;;22.00;19.33;;;15.10;99.90;;;;;;4940960;29;20027;-82
2022/11/17 13:12:05;;;;;;;25.08;20.30;;;15.10;99.90;;;;;;4937192;28;20047;-82
2022/11/17 13:14:35;;;;;;;21.20;18.05;;;15.00;99.90;;;;;;4955844;28;20035;-83
2022/11/17 13:17:01;;;;;;;20.48;18.10;;;15.10;99.90;;;;;;4954121;28;20046;-83
2022/11/17 13:19:37;;;;;;;21.70;19.40;;;15.10;99.90;;;;;;4957117;28;20050;-83